createdAt,value
2017-08-04T00:00:09.472Z,16.59
2017-08-04T00:01:09.441Z,16.61
2017-08-04T00:02:09.472Z,16.59
2017-08-04T00:03:09.522Z,16.58
2017-08-04T00:04:09.442Z,16.57
2017-08-04T00:05:09.540Z,16.58
2017-08-04T00:06:09.495Z,16.58
2017-08-04T00:07:09.438Z,16.57
2017-08-04T00:08:09.464Z,16.54
2017-08-04T00:09:09.469Z,16.51
2017-08-04T00:10:09.502Z,16.48
2017-08-04T00:11:09.469Z,16.46
2017-08-04T00:12:09.466Z,16.46
2017-08-04T00:13:09.522Z,16.43
2017-08-04T00:14:09.467Z,16.38
2017-08-04T00:15:09.499Z,16.35
2017-08-04T00:16:09.640Z,16.32
2017-08-04T00:17:09.500Z,16.29
2017-08-04T00:18:09.513Z,16.27
2017-08-04T00:19:09.447Z,16.25
2017-08-04T00:20:09.474Z,16.21
2017-08-04T00:21:09.449Z,16.18
2017-08-04T00:22:09.455Z,16.14
2017-08-04T00:23:09.514Z,16.11
2017-08-04T00:24:09.489Z,16.07
2017-08-04T00:25:09.548Z,16.07
2017-08-04T00:26:09.505Z,16.06
2017-08-04T00:27:09.514Z,16.03
2017-08-04T00:28:09.527Z,16.03
2017-08-04T00:29:09.461Z,16.00
2017-08-04T00:30:09.556Z,15.97
2017-08-04T00:31:09.531Z,15.94
2017-08-04T00:32:09.455Z,15.91
2017-08-04T00:33:09.461Z,15.88
2017-08-04T00:34:09.493Z,15.87
2017-08-04T00:35:09.459Z,15.86
2017-08-04T00:36:09.551Z,15.86
2017-08-04T00:37:09.523Z,15.87
2017-08-04T00:38:09.463Z,15.83
2017-08-04T00:39:09.537Z,15.79
2017-08-04T00:40:09.485Z,15.76
2017-08-04T00:41:09.468Z,15.72
2017-08-04T00:42:09.461Z,15.72
2017-08-04T00:43:09.554Z,15.70
2017-08-04T00:44:09.495Z,15.70
2017-08-04T00:45:09.561Z,15.73
2017-08-04T00:46:09.499Z,15.73
2017-08-04T00:47:09.523Z,15.70
2017-08-04T00:48:09.557Z,15.70
2017-08-04T00:49:09.520Z,15.72
2017-08-04T00:50:09.468Z,15.72
2017-08-04T00:51:09.561Z,15.69
2017-08-04T00:52:09.468Z,15.70
2017-08-04T00:53:09.473Z,15.66
2017-08-04T00:54:09.469Z,15.62
2017-08-04T00:55:09.501Z,15.58
2017-08-04T00:56:09.468Z,15.53
2017-08-04T00:57:09.531Z,15.50
2017-08-04T00:58:09.568Z,15.50
2017-08-04T00:59:09.478Z,15.50
2017-08-04T01:00:09.494Z,15.44
2017-08-04T01:01:09.498Z,15.43
2017-08-04T01:02:09.471Z,15.40
2017-08-04T01:03:09.510Z,15.37
2017-08-04T01:04:09.524Z,15.36
2017-08-04T01:05:09.508Z,15.35
2017-08-04T01:06:09.497Z,15.33
2017-08-04T01:07:09.495Z,15.29
2017-08-04T01:08:09.501Z,15.28
2017-08-04T01:09:09.499Z,15.25
2017-08-04T01:10:09.534Z,15.24
2017-08-04T01:11:09.468Z,15.21
2017-08-04T01:12:09.530Z,15.22
2017-08-04T01:13:09.499Z,15.21
2017-08-04T01:14:09.501Z,15.19
2017-08-04T01:15:09.542Z,15.19
2017-08-04T01:16:09.496Z,15.18
2017-08-04T01:17:09.503Z,15.17
2017-08-04T01:18:09.476Z,15.14
2017-08-04T01:19:09.546Z,15.13
2017-08-04T01:20:09.457Z,15.13
2017-08-04T01:21:09.432Z,15.13
2017-08-04T01:22:09.467Z,15.13
2017-08-04T01:23:09.508Z,15.14
2017-08-04T01:24:09.456Z,15.14
2017-08-04T01:25:09.503Z,15.17
2017-08-04T01:26:09.560Z,15.18
2017-08-04T01:27:09.489Z,15.17
2017-08-04T01:28:09.545Z,15.15
2017-08-04T01:29:09.543Z,15.18
2017-08-04T01:30:09.544Z,15.18
2017-08-04T01:31:09.482Z,15.17
2017-08-04T01:32:09.510Z,15.14
2017-08-04T01:33:09.546Z,15.14
2017-08-04T01:34:09.484Z,15.14
2017-08-04T01:35:09.545Z,15.15
2017-08-04T01:36:09.500Z,15.15
2017-08-04T01:37:09.542Z,15.19
2017-08-04T01:38:09.432Z,15.26
2017-08-04T01:39:09.494Z,15.28
2017-08-04T01:40:09.479Z,15.26
2017-08-04T01:41:09.517Z,15.26
2017-08-04T01:42:09.488Z,15.25
2017-08-04T01:43:09.428Z,15.25
2017-08-04T01:44:09.432Z,15.24
2017-08-04T01:45:09.515Z,15.24
2017-08-04T01:46:09.652Z,15.22
2017-08-04T01:47:09.475Z,15.22
2017-08-04T01:48:09.521Z,15.24
2017-08-04T01:49:09.518Z,15.24
2017-08-04T01:50:09.478Z,15.22
2017-08-04T01:51:09.510Z,15.24
2017-08-04T01:52:09.499Z,15.25
2017-08-04T01:53:09.486Z,15.26
2017-08-04T01:54:09.497Z,15.28
2017-08-04T01:55:09.472Z,15.28
2017-08-04T01:56:09.523Z,15.32
2017-08-04T01:57:09.555Z,15.31
2017-08-04T01:58:09.562Z,15.35
2017-08-04T01:59:09.507Z,15.36
2017-08-04T02:00:09.528Z,15.39
2017-08-04T02:01:09.527Z,15.43
2017-08-04T02:02:09.503Z,15.46
2017-08-04T02:03:09.531Z,15.50
2017-08-04T02:04:09.566Z,15.54
2017-08-04T02:05:09.601Z,15.55
2017-08-04T02:06:09.515Z,15.57
2017-08-04T02:07:09.509Z,15.55
2017-08-04T02:08:09.502Z,15.57
2017-08-04T02:09:09.563Z,15.59
2017-08-04T02:10:09.450Z,15.61
2017-08-04T02:11:09.525Z,15.58
2017-08-04T02:12:09.525Z,15.62
2017-08-04T02:13:09.457Z,15.59
2017-08-04T02:14:09.524Z,15.62
2017-08-04T02:15:09.574Z,15.62
2017-08-04T02:16:09.493Z,15.61
2017-08-04T02:17:09.535Z,15.59
2017-08-04T02:18:09.515Z,15.57
2017-08-04T02:19:09.585Z,15.55
2017-08-04T02:20:09.535Z,15.55
2017-08-04T02:21:09.549Z,15.55
2017-08-04T02:22:09.523Z,15.53
2017-08-04T02:23:09.659Z,15.48
2017-08-04T02:24:09.536Z,15.47
2017-08-04T02:25:09.536Z,15.47
2017-08-04T02:26:09.517Z,15.46
2017-08-04T02:27:09.547Z,15.42
2017-08-04T02:29:09.541Z,15.44
2017-08-04T02:30:09.521Z,15.44
2017-08-04T02:31:09.583Z,15.43
2017-08-04T02:32:09.518Z,15.46
2017-08-04T02:33:09.578Z,15.48
2017-08-04T02:34:09.548Z,15.47
2017-08-04T02:35:09.588Z,15.48
2017-08-04T02:36:09.549Z,15.50
2017-08-04T02:37:09.556Z,15.51
2017-08-04T02:38:09.524Z,15.51
2017-08-04T02:39:09.532Z,15.53
2017-08-04T02:40:09.509Z,15.55
2017-08-04T02:41:09.740Z,15.58
2017-08-04T02:42:09.617Z,15.59
2017-08-04T02:43:09.595Z,15.62
2017-08-04T02:44:09.546Z,15.64
2017-08-04T02:45:09.564Z,15.64
2017-08-04T02:46:09.590Z,15.62
2017-08-04T02:47:09.573Z,15.62
2017-08-04T02:48:09.540Z,15.62
2017-08-04T02:49:09.606Z,15.64
2017-08-04T02:50:09.627Z,15.65
2017-08-04T02:51:09.633Z,15.68
2017-08-04T02:52:09.571Z,15.73
2017-08-04T02:53:09.572Z,15.73
2017-08-04T02:54:09.605Z,15.76
2017-08-04T02:55:09.607Z,15.76
2017-08-04T02:56:09.479Z,15.77
2017-08-04T02:57:09.477Z,15.79
2017-08-04T02:58:09.482Z,15.82
2017-08-04T02:59:09.608Z,15.86
2017-08-04T03:00:09.557Z,15.88
2017-08-04T03:01:09.605Z,15.91
2017-08-04T03:02:09.527Z,15.91
2017-08-04T03:03:09.543Z,15.91
2017-08-04T03:04:09.544Z,15.91
2017-08-04T03:05:09.528Z,15.93
2017-08-04T03:06:09.537Z,15.93
2017-08-04T03:07:09.486Z,15.94
2017-08-04T03:08:09.484Z,15.97
2017-08-04T03:09:09.487Z,15.99
2017-08-04T03:10:09.541Z,16.02
2017-08-04T03:11:09.486Z,16.02
2017-08-04T03:12:09.544Z,16.03
2017-08-04T03:13:09.554Z,16.03
2017-08-04T03:14:09.559Z,16.05
2017-08-04T03:15:09.546Z,16.05
2017-08-04T03:16:09.545Z,16.05
2017-08-04T03:17:09.578Z,16.06
2017-08-04T03:18:09.529Z,16.05
2017-08-04T03:19:09.525Z,16.06
2017-08-04T03:20:09.522Z,16.06
2017-08-04T03:21:09.553Z,16.05
2017-08-04T03:22:09.554Z,16.06
2017-08-04T03:23:09.556Z,16.05
2017-08-04T03:24:09.582Z,16.06
2017-08-04T03:25:09.557Z,16.06
2017-08-04T03:26:09.583Z,16.06
2017-08-04T03:27:09.660Z,16.06
2017-08-04T03:28:09.615Z,16.07
2017-08-04T03:29:09.559Z,16.06
2017-08-04T03:30:09.561Z,16.09
2017-08-04T03:31:09.594Z,16.07
2017-08-04T03:32:09.659Z,16.06
2017-08-04T03:33:09.652Z,16.05
2017-08-04T03:34:09.633Z,16.03
2017-08-04T03:35:09.656Z,16.03
2017-08-04T03:36:09.647Z,16.02
2017-08-04T03:37:09.658Z,16.02
2017-08-04T03:38:09.652Z,16.02
2017-08-04T03:39:09.635Z,16.00
2017-08-04T03:40:09.599Z,16.02
2017-08-04T03:41:09.658Z,16.02
2017-08-04T03:42:09.637Z,16.02
2017-08-04T03:43:09.634Z,16.03
2017-08-04T03:44:09.605Z,16.05
2017-08-04T03:45:09.623Z,16.05
2017-08-04T03:46:09.569Z,16.05
2017-08-04T03:47:09.588Z,16.03
2017-08-04T03:48:09.634Z,16.05
2017-08-04T03:49:09.634Z,16.05
2017-08-04T03:50:09.593Z,16.06
2017-08-04T03:51:09.632Z,16.09
2017-08-04T03:52:09.602Z,16.11
2017-08-04T03:53:09.630Z,16.13
2017-08-04T03:54:09.593Z,16.16
2017-08-04T03:55:09.597Z,16.17
2017-08-04T03:56:09.582Z,16.18
2017-08-04T03:57:09.575Z,16.17
2017-08-04T03:58:09.580Z,16.17
2017-08-04T03:59:09.611Z,16.16
2017-08-04T04:00:09.649Z,16.16
2017-08-04T04:01:09.615Z,16.16
2017-08-04T04:02:09.585Z,16.16
2017-08-04T04:03:09.641Z,16.14
2017-08-04T04:04:09.612Z,16.16
2017-08-04T04:05:09.579Z,16.16
2017-08-04T04:06:09.579Z,16.13
2017-08-04T04:07:09.579Z,16.14
2017-08-04T04:08:09.575Z,16.16
2017-08-04T04:09:09.605Z,16.16
2017-08-04T04:10:09.581Z,16.16
2017-08-04T04:11:09.581Z,16.17
2017-08-04T04:12:09.609Z,16.20
2017-08-04T04:13:09.589Z,16.22
2017-08-04T04:14:09.610Z,16.22
2017-08-04T04:15:09.571Z,16.24
2017-08-04T04:16:09.623Z,16.24
2017-08-04T04:17:09.650Z,16.25
2017-08-04T04:18:09.652Z,16.28
2017-08-04T04:19:09.659Z,16.31
2017-08-04T04:20:09.622Z,16.32
2017-08-04T04:22:09.624Z,16.39
2017-08-04T04:23:09.621Z,16.43
2017-08-04T04:24:09.664Z,16.44
2017-08-04T04:25:09.654Z,16.44
2017-08-04T04:26:09.614Z,16.46
2017-08-04T04:27:09.629Z,16.48
2017-08-04T04:28:09.615Z,16.48
2017-08-04T04:29:09.657Z,16.48
2017-08-04T04:30:09.688Z,16.48
2017-08-04T04:31:09.610Z,16.47
2017-08-04T04:32:09.595Z,16.47
2017-08-04T04:33:09.670Z,16.46
2017-08-04T04:34:09.658Z,16.47
2017-08-04T04:35:09.688Z,16.44
2017-08-04T04:36:09.589Z,16.46
2017-08-04T04:37:09.672Z,16.44
2017-08-04T04:38:09.620Z,16.43
2017-08-04T04:39:09.621Z,16.44
2017-08-04T04:40:09.587Z,16.44
2017-08-04T04:41:09.655Z,16.43
2017-08-04T04:42:09.622Z,16.44
2017-08-04T04:43:09.659Z,16.43
2017-08-04T04:44:09.584Z,16.43
2017-08-04T04:45:09.653Z,16.46
2017-08-04T04:46:09.605Z,16.46
2017-08-04T04:47:09.605Z,16.48
2017-08-04T04:48:09.604Z,16.50
2017-08-04T04:49:09.660Z,16.50
2017-08-04T04:50:09.612Z,16.51
2017-08-04T04:51:09.631Z,16.54
2017-08-04T04:52:09.697Z,16.55
2017-08-04T04:53:09.694Z,16.61
2017-08-04T04:54:09.643Z,16.69
2017-08-04T04:55:09.638Z,16.74
2017-08-04T04:56:09.627Z,16.80
2017-08-04T04:57:09.630Z,16.84
2017-08-04T04:58:09.665Z,16.87
2017-08-04T04:59:09.666Z,16.90
2017-08-04T05:00:09.662Z,16.94
2017-08-04T05:01:09.665Z,16.95
2017-08-04T05:02:09.665Z,16.97
2017-08-04T05:03:09.599Z,16.95
2017-08-04T05:04:09.665Z,16.99
2017-08-04T05:05:09.668Z,17.01
2017-08-04T05:06:09.636Z,17.02
2017-08-04T05:07:09.683Z,17.03
2017-08-04T05:08:09.591Z,17.06
2017-08-04T05:09:09.595Z,17.09
2017-08-04T05:10:09.681Z,17.21
2017-08-04T05:11:09.614Z,17.26
2017-08-04T05:12:09.641Z,17.31
2017-08-04T05:13:09.638Z,17.33
2017-08-04T05:14:09.646Z,17.39
2017-08-04T05:15:09.571Z,17.42
2017-08-04T05:16:09.624Z,17.43
2017-08-04T05:17:09.621Z,17.47
2017-08-04T05:18:09.651Z,17.49
2017-08-04T05:19:09.623Z,17.51
2017-08-04T05:20:09.645Z,17.51
2017-08-04T05:21:09.652Z,17.51
2017-08-04T05:22:09.649Z,17.53
2017-08-04T05:23:09.659Z,17.54
2017-08-04T05:24:09.664Z,17.58
2017-08-04T05:25:09.756Z,17.62
2017-08-04T05:26:09.679Z,17.68
2017-08-04T05:27:09.619Z,17.73
2017-08-04T05:28:09.680Z,17.76
2017-08-04T05:29:09.687Z,17.84
2017-08-04T05:30:09.684Z,17.88
2017-08-04T05:31:09.651Z,17.89
2017-08-04T05:32:09.623Z,17.95
2017-08-04T05:33:09.684Z,18.00
2017-08-04T05:34:09.653Z,18.06
2017-08-04T05:35:09.626Z,18.12
2017-08-04T05:36:09.683Z,18.16
2017-08-04T05:37:09.729Z,18.20
2017-08-04T05:38:09.688Z,18.27
2017-08-04T05:39:09.635Z,18.32
2017-08-04T05:40:09.709Z,18.36
2017-08-04T05:41:09.750Z,18.40
2017-08-04T05:42:09.642Z,18.46
2017-08-04T05:43:09.653Z,18.50
2017-08-04T05:44:09.736Z,18.58
2017-08-04T05:45:09.663Z,18.61
2017-08-04T05:46:09.711Z,18.65
2017-08-04T05:47:09.592Z,18.73
2017-08-04T05:48:09.634Z,18.81
2017-08-04T05:49:09.668Z,18.91
2017-08-04T05:50:09.672Z,19.03
2017-08-04T05:51:09.703Z,19.12
2017-08-04T05:52:09.672Z,19.21
2017-08-04T05:53:09.705Z,19.32
2017-08-04T05:54:09.659Z,19.43
2017-08-04T05:55:09.711Z,19.51
2017-08-04T05:56:09.619Z,19.58
2017-08-04T05:57:09.663Z,19.64
2017-08-04T05:58:09.665Z,19.68
2017-08-04T05:59:09.805Z,19.72
2017-08-04T06:00:09.786Z,19.76
2017-08-04T06:01:09.644Z,19.81
2017-08-04T06:02:09.695Z,19.87
2017-08-04T06:03:09.663Z,19.98
2017-08-04T06:04:09.647Z,20.01
2017-08-04T06:05:09.677Z,20.03
2017-08-04T06:06:09.657Z,20.01
2017-08-04T06:07:09.722Z,20.05
2017-08-04T06:08:09.740Z,20.10
2017-08-04T06:09:09.679Z,20.10
2017-08-04T06:10:09.655Z,20.12
2017-08-04T06:11:09.721Z,20.17
2017-08-04T06:12:09.694Z,20.18
2017-08-04T06:13:09.656Z,20.25
2017-08-04T06:14:09.686Z,20.20
2017-08-04T06:15:09.684Z,20.12
2017-08-04T06:16:09.690Z,20.17
2017-08-04T06:17:09.650Z,20.14
2017-08-04T06:18:09.682Z,20.13
2017-08-04T06:19:09.679Z,20.14
2017-08-04T06:20:09.647Z,20.17
2017-08-04T06:21:09.679Z,20.17
2017-08-04T06:22:09.653Z,20.16
2017-08-04T06:23:09.647Z,20.23
2017-08-04T06:24:09.646Z,20.30
2017-08-04T06:25:09.644Z,20.35
2017-08-04T06:26:09.714Z,20.35
2017-08-04T06:27:09.723Z,20.30
2017-08-04T06:28:09.763Z,20.23
2017-08-04T06:29:09.668Z,20.20
2017-08-04T06:30:09.692Z,20.20
2017-08-04T06:31:09.760Z,20.24
2017-08-04T06:32:09.698Z,20.20
2017-08-04T06:33:09.667Z,20.13
2017-08-04T06:34:09.702Z,20.09
2017-08-04T06:35:09.738Z,20.03
2017-08-04T06:36:09.707Z,20.02
2017-08-04T06:37:09.722Z,20.07
2017-08-04T06:38:09.694Z,20.10
2017-08-04T06:39:09.726Z,20.10
2017-08-04T06:40:09.696Z,20.07
2017-08-04T06:41:09.691Z,20.05
2017-08-04T06:42:09.691Z,19.98
2017-08-04T06:43:09.662Z,19.90
2017-08-04T06:44:09.664Z,19.81
2017-08-04T06:45:09.702Z,19.77
2017-08-04T06:46:09.729Z,19.74
2017-08-04T06:47:09.694Z,19.74
2017-08-04T06:48:09.687Z,19.73
2017-08-04T06:49:09.692Z,19.76
2017-08-04T06:50:09.696Z,19.76
2017-08-04T06:51:09.738Z,19.79
2017-08-04T06:52:09.704Z,19.79
2017-08-04T06:53:09.645Z,19.81
2017-08-04T06:54:09.676Z,19.85
2017-08-04T06:55:09.699Z,19.91
2017-08-04T06:56:09.703Z,19.88
2017-08-04T06:57:09.751Z,19.92
2017-08-04T06:58:09.684Z,19.95
2017-08-04T06:59:09.661Z,19.96
2017-08-04T07:00:09.691Z,19.99
2017-08-04T07:01:09.632Z,20.03
2017-08-04T07:02:09.699Z,20.06
2017-08-04T07:03:09.700Z,19.98
2017-08-04T07:04:09.713Z,19.98
2017-08-04T07:05:09.682Z,20.05
2017-08-04T07:06:09.748Z,20.09
2017-08-04T07:07:09.705Z,20.12
2017-08-04T07:08:09.635Z,20.14
2017-08-04T07:09:09.728Z,20.16
2017-08-04T07:10:09.706Z,20.20
2017-08-04T07:11:09.695Z,20.27
2017-08-04T07:12:09.701Z,20.34
2017-08-04T07:13:09.713Z,20.34
2017-08-04T07:14:09.658Z,20.20
2017-08-04T07:15:09.699Z,20.20
2017-08-04T07:16:09.697Z,20.28
2017-08-04T07:17:09.756Z,20.32
2017-08-04T07:18:09.783Z,20.32
2017-08-04T07:19:09.691Z,20.31
2017-08-04T07:20:09.731Z,20.32
2017-08-04T07:21:09.752Z,20.17
2017-08-04T07:22:09.721Z,20.14
2017-08-04T07:23:09.789Z,20.21
2017-08-04T07:24:09.700Z,20.36
2017-08-04T07:25:09.787Z,20.47
2017-08-04T07:26:09.732Z,20.57
2017-08-04T07:27:09.757Z,20.73
2017-08-04T07:28:09.732Z,20.77
2017-08-04T07:29:09.699Z,20.79
2017-08-04T07:30:09.728Z,20.82
2017-08-04T07:31:09.727Z,20.82
2017-08-04T07:32:09.743Z,20.93
2017-08-04T07:33:09.751Z,20.95
2017-08-04T07:34:09.740Z,20.95
2017-08-04T07:35:09.708Z,21.04
2017-08-04T07:36:09.741Z,21.06
2017-08-04T07:37:09.775Z,21.02
2017-08-04T07:38:09.699Z,21.02
2017-08-04T07:39:09.772Z,20.97
2017-08-04T07:40:09.762Z,20.87
2017-08-04T07:41:09.708Z,20.82
2017-08-04T07:42:09.738Z,20.82
2017-08-04T07:43:09.744Z,20.73
2017-08-04T07:44:09.793Z,20.79
2017-08-04T07:45:09.704Z,20.88
2017-08-04T07:46:09.783Z,20.90
2017-08-04T07:47:09.747Z,20.88
2017-08-04T07:48:09.805Z,20.93
2017-08-04T07:49:09.806Z,20.86
2017-08-04T07:50:09.707Z,20.73
2017-08-04T07:51:09.712Z,20.68
2017-08-04T07:52:09.806Z,20.70
2017-08-04T07:53:09.772Z,20.77
2017-08-04T07:54:09.737Z,20.91
2017-08-04T07:55:09.807Z,20.93
2017-08-04T07:56:09.780Z,20.94
2017-08-04T07:57:09.771Z,20.97
2017-08-04T07:58:09.791Z,21.01
2017-08-04T07:59:09.706Z,21.13
2017-08-04T08:00:09.735Z,21.22
2017-08-04T08:01:09.708Z,21.17
2017-08-04T08:02:09.771Z,21.14
2017-08-04T08:03:09.741Z,21.13
2017-08-04T08:04:09.708Z,21.02
2017-08-04T08:05:09.738Z,21.04
2017-08-04T08:06:09.772Z,21.10
2017-08-04T08:07:09.728Z,21.05
2017-08-04T08:08:09.731Z,21.09
2017-08-04T08:09:09.744Z,20.93
2017-08-04T08:10:09.672Z,20.88
2017-08-04T08:11:09.731Z,20.73
2017-08-04T08:12:09.754Z,20.70
2017-08-04T08:13:09.786Z,20.56
2017-08-04T08:14:09.751Z,20.57
2017-08-04T08:15:09.748Z,20.53
2017-08-04T08:16:09.752Z,20.49
2017-08-04T08:17:09.716Z,20.45
2017-08-04T08:18:09.718Z,20.34
2017-08-04T08:19:09.724Z,20.32
2017-08-04T08:20:09.712Z,20.32
2017-08-04T08:21:09.750Z,20.30
2017-08-04T08:22:09.780Z,20.32
2017-08-04T08:23:09.758Z,20.28
2017-08-04T08:24:09.782Z,20.27
2017-08-04T08:25:09.752Z,20.27
2017-08-04T08:26:09.766Z,20.28
2017-08-04T08:27:09.787Z,20.36
2017-08-04T08:28:09.726Z,20.35
2017-08-04T08:29:09.798Z,20.36
2017-08-04T08:30:09.753Z,20.41
2017-08-04T08:31:09.788Z,20.35
2017-08-04T08:32:09.725Z,20.38
2017-08-04T08:33:09.760Z,20.45
2017-08-04T08:34:09.788Z,20.43
2017-08-04T08:35:09.795Z,20.47
2017-08-04T08:36:09.768Z,20.50
2017-08-04T08:37:09.793Z,20.56
2017-08-04T08:38:09.777Z,20.66
2017-08-04T08:39:09.740Z,20.79
2017-08-04T08:40:09.837Z,20.86
2017-08-04T08:41:09.770Z,20.97
2017-08-04T08:42:09.813Z,21.05
2017-08-04T08:43:09.796Z,21.08
2017-08-04T08:44:09.801Z,21.08
2017-08-04T08:45:09.772Z,21.18
2017-08-04T08:46:09.781Z,21.18
2017-08-04T08:47:09.801Z,21.21
2017-08-04T08:48:09.800Z,21.17
2017-08-04T08:49:09.747Z,21.06
2017-08-04T08:50:09.818Z,21.10
2017-08-04T08:51:09.838Z,21.08
2017-08-04T08:52:09.839Z,21.06
2017-08-04T08:53:09.748Z,21.17
2017-08-04T08:54:09.784Z,21.21
2017-08-04T08:55:09.805Z,21.29
2017-08-04T08:56:09.845Z,21.31
2017-08-04T08:57:09.801Z,21.34
2017-08-04T08:58:09.738Z,21.38
2017-08-04T08:59:09.787Z,21.32
2017-08-04T09:00:09.755Z,21.45
2017-08-04T09:01:09.805Z,21.40
2017-08-04T09:02:09.773Z,21.43
2017-08-04T09:03:09.775Z,21.21
2017-08-04T09:04:09.807Z,20.99
2017-08-04T09:05:09.743Z,20.93
2017-08-04T09:06:09.810Z,20.98
2017-08-04T09:07:09.746Z,21.06
2017-08-04T09:08:09.813Z,21.04
2017-08-04T09:09:09.781Z,20.99
2017-08-04T09:10:09.759Z,20.95
2017-08-04T09:11:09.788Z,20.99
2017-08-04T09:12:09.836Z,21.02
2017-08-04T09:13:09.792Z,21.01
2017-08-04T09:14:09.794Z,20.86
2017-08-04T09:15:09.837Z,20.80
2017-08-04T09:16:09.786Z,20.75
2017-08-04T09:17:09.848Z,20.77
2017-08-04T09:18:09.759Z,20.83
2017-08-04T09:19:09.777Z,20.84
2017-08-04T09:20:09.793Z,20.88
2017-08-04T09:21:09.776Z,20.99
2017-08-04T09:22:09.740Z,21.01
2017-08-04T09:23:09.787Z,21.01
2017-08-04T09:24:09.798Z,21.09
2017-08-04T09:25:09.773Z,21.14
2017-08-04T09:26:09.770Z,21.16
2017-08-04T09:27:09.829Z,21.17
2017-08-04T09:28:09.824Z,21.25
2017-08-04T09:29:09.800Z,21.32
2017-08-04T09:30:09.773Z,21.32
2017-08-04T09:31:09.769Z,21.28
2017-08-04T09:32:09.860Z,21.35
2017-08-04T09:33:09.837Z,21.29
2017-08-04T09:34:09.804Z,21.40
2017-08-04T09:35:09.795Z,21.46
2017-08-04T09:36:09.851Z,21.40
2017-08-04T09:37:09.804Z,21.43
2017-08-04T09:38:09.761Z,21.50
2017-08-04T09:39:09.687Z,21.53
2017-08-04T09:40:09.745Z,21.45
2017-08-04T09:41:09.689Z,21.36
2017-08-04T09:42:09.706Z,21.38
2017-08-04T09:43:09.771Z,21.34
2017-08-04T09:44:09.777Z,21.25
2017-08-04T09:45:09.750Z,21.31
2017-08-04T09:46:09.775Z,21.29
2017-08-04T09:47:09.782Z,21.18
2017-08-04T09:48:09.820Z,21.10
2017-08-04T09:49:09.844Z,21.09
2017-08-04T09:50:09.785Z,21.16
2017-08-04T09:51:09.858Z,21.27
2017-08-04T09:52:09.854Z,21.35
2017-08-04T09:53:09.853Z,21.45
2017-08-04T09:54:09.821Z,21.49
2017-08-04T09:55:09.880Z,21.56
2017-08-04T09:56:09.857Z,21.60
2017-08-04T09:57:09.790Z,21.62
2017-08-04T09:58:09.790Z,21.67
2017-08-04T09:59:09.820Z,21.78
2017-08-04T10:00:09.819Z,21.93
2017-08-04T10:01:09.854Z,21.90
2017-08-04T10:03:09.789Z,22.20
2017-08-04T10:05:09.888Z,22.28
2017-08-04T10:06:09.812Z,22.43
2017-08-04T10:07:09.816Z,22.54
2017-08-04T10:08:09.921Z,22.75
2017-08-04T10:09:09.817Z,23.02
2017-08-04T10:10:09.793Z,22.93
2017-08-04T10:11:09.832Z,22.59
2017-08-04T10:12:09.832Z,22.71
2017-08-04T10:13:09.800Z,22.76
2017-08-04T10:14:09.884Z,22.87
2017-08-04T10:15:09.852Z,23.11
2017-08-04T10:16:09.856Z,23.27
2017-08-04T10:17:09.869Z,23.44
2017-08-04T10:18:09.802Z,23.57
2017-08-04T10:19:09.811Z,23.54
2017-08-04T10:20:09.804Z,23.31
2017-08-04T10:21:09.829Z,23.27
2017-08-04T10:22:09.797Z,23.02
2017-08-04T10:23:09.767Z,23.00
2017-08-04T10:24:09.771Z,23.01
2017-08-04T10:25:09.812Z,23.11
2017-08-04T10:26:09.801Z,23.16
2017-08-04T10:27:09.830Z,22.83
2017-08-04T10:28:09.830Z,22.67
2017-08-04T10:29:09.891Z,22.65
2017-08-04T10:30:09.804Z,22.75
2017-08-04T10:31:09.843Z,22.71
2017-08-04T10:32:09.833Z,22.79
2017-08-04T10:33:09.834Z,22.72
2017-08-04T10:34:09.871Z,22.86
2017-08-04T10:35:09.814Z,23.22
2017-08-04T10:36:09.808Z,23.45
2017-08-04T10:37:09.850Z,23.54
2017-08-04T10:38:09.845Z,23.67
2017-08-04T10:39:09.885Z,23.50
2017-08-04T10:40:09.884Z,23.28
2017-08-04T10:41:09.837Z,23.17
2017-08-04T10:42:09.851Z,23.33
2017-08-04T10:43:09.848Z,23.51
2017-08-04T10:44:09.865Z,23.60
2017-08-04T10:45:09.843Z,23.78
2017-08-04T10:46:09.879Z,23.97
2017-08-04T10:47:09.942Z,24.37
2017-08-04T10:48:09.813Z,24.64
2017-08-04T10:49:09.820Z,24.81
2017-08-04T10:50:09.868Z,24.68
2017-08-04T10:51:09.845Z,24.51
2017-08-04T10:52:09.845Z,24.34
2017-08-04T10:53:09.819Z,24.34
2017-08-04T10:54:09.801Z,24.04
2017-08-04T10:55:09.815Z,23.78
2017-08-04T10:56:09.827Z,23.47
2017-08-04T10:57:09.841Z,23.31
2017-08-04T10:58:09.818Z,23.09
2017-08-04T10:59:09.847Z,22.95
2017-08-04T11:00:09.825Z,22.98
2017-08-04T11:01:09.851Z,23.22
2017-08-04T11:02:09.820Z,23.38
2017-08-04T11:03:09.869Z,23.58
2017-08-04T11:04:09.825Z,23.54
2017-08-04T11:05:09.857Z,23.54
2017-08-04T11:06:09.834Z,23.79
2017-08-04T11:07:09.895Z,24.00
2017-08-04T11:08:09.851Z,24.07
2017-08-04T11:09:09.816Z,24.20
2017-08-04T11:10:09.851Z,24.30
2017-08-04T11:11:09.853Z,24.34
2017-08-04T11:12:09.824Z,24.42
2017-08-04T11:13:09.879Z,24.41
2017-08-04T11:14:09.825Z,24.09
2017-08-04T11:15:09.827Z,23.98
2017-08-04T11:16:09.852Z,23.79
2017-08-04T11:17:09.956Z,23.56
2017-08-04T11:18:09.838Z,23.49
2017-08-04T11:19:09.839Z,23.37
2017-08-04T11:20:09.867Z,23.19
2017-08-04T11:21:09.923Z,23.20
2017-08-04T11:22:09.869Z,23.41
2017-08-04T11:23:09.864Z,23.53
2017-08-04T11:24:09.846Z,23.50
2017-08-04T11:25:09.911Z,23.50
2017-08-04T11:26:09.874Z,23.68
2017-08-04T11:27:09.908Z,23.65
2017-08-04T11:28:09.872Z,23.61
2017-08-04T11:29:09.845Z,23.61
2017-08-04T11:30:09.934Z,23.49
2017-08-04T11:31:09.878Z,23.37
2017-08-04T11:32:09.895Z,23.45
2017-08-04T11:33:09.843Z,23.75
2017-08-04T11:34:09.878Z,24.01
2017-08-04T11:35:09.915Z,24.12
2017-08-04T11:36:09.842Z,24.04
2017-08-04T11:37:09.874Z,23.78
2017-08-04T11:38:09.869Z,23.98
2017-08-04T11:39:09.839Z,23.96
2017-08-04T11:40:09.840Z,23.85
2017-08-04T11:41:09.839Z,23.61
2017-08-04T11:42:09.872Z,23.60
2017-08-04T11:43:09.899Z,23.69
2017-08-04T11:44:09.873Z,23.82
2017-08-04T11:45:09.908Z,24.04
2017-08-04T11:46:09.839Z,24.09
2017-08-04T11:47:09.896Z,24.01
2017-08-04T11:48:09.916Z,24.18
2017-08-04T11:49:09.882Z,24.25
2017-08-04T11:50:09.928Z,24.15
2017-08-04T11:51:09.858Z,24.19
2017-08-04T11:52:09.916Z,24.16
2017-08-04T11:53:10.039Z,24.02
2017-08-04T11:54:09.964Z,24.12
2017-08-04T11:55:09.853Z,24.20
2017-08-04T11:56:09.911Z,24.25
2017-08-04T11:57:09.855Z,24.29
2017-08-04T11:58:09.930Z,24.38
2017-08-04T11:59:09.869Z,24.74
2017-08-04T12:00:09.922Z,24.71
2017-08-04T12:01:09.952Z,24.79
2017-08-04T12:02:09.943Z,24.83
2017-08-04T12:03:09.955Z,24.93
2017-08-04T12:04:09.913Z,24.83
2017-08-04T12:05:09.953Z,24.64
2017-08-04T12:06:09.895Z,24.61
2017-08-04T12:07:09.920Z,24.40
2017-08-04T12:08:09.854Z,24.34
2017-08-04T12:09:09.886Z,24.34
2017-08-04T12:10:09.883Z,24.19
2017-08-04T12:11:09.857Z,24.20
2017-08-04T12:12:09.916Z,24.22
2017-08-04T12:13:09.923Z,24.09
2017-08-04T12:14:09.922Z,24.14
2017-08-04T12:15:09.859Z,24.15
2017-08-04T12:16:09.896Z,24.04
2017-08-04T12:17:09.890Z,23.82
2017-08-04T12:18:09.830Z,24.00
2017-08-04T12:19:09.830Z,23.96
2017-08-04T12:20:09.828Z,24.20
2017-08-04T12:21:09.855Z,24.26
2017-08-04T12:22:09.880Z,24.12
2017-08-04T12:23:09.832Z,24.05
2017-08-04T12:24:09.883Z,23.98
2017-08-04T12:25:09.869Z,23.97
2017-08-04T12:26:09.865Z,23.98
2017-08-04T12:27:09.850Z,23.85
2017-08-04T12:28:09.907Z,23.78
2017-08-04T12:29:09.963Z,23.75
2017-08-04T12:30:09.936Z,23.67
2017-08-04T12:31:09.963Z,23.65
2017-08-04T12:32:09.988Z,23.57
2017-08-04T12:33:09.914Z,23.44
2017-08-04T12:34:09.964Z,23.38
2017-08-04T12:35:09.962Z,23.38
2017-08-04T12:36:09.911Z,23.37
2017-08-04T12:37:09.883Z,23.30
2017-08-04T12:38:09.846Z,23.28
2017-08-04T12:39:09.940Z,23.27
2017-08-04T12:40:09.850Z,23.39
2017-08-04T12:41:09.915Z,23.53
2017-08-04T12:42:09.855Z,23.61
2017-08-04T12:43:09.858Z,23.72
2017-08-04T12:44:09.887Z,23.94
2017-08-04T12:45:09.853Z,23.94
2017-08-04T12:46:09.854Z,24.04
2017-08-04T12:47:09.839Z,24.05
2017-08-04T12:48:09.920Z,24.04
2017-08-04T12:49:09.957Z,24.01
2017-08-04T12:50:09.962Z,23.97
2017-08-04T12:51:09.889Z,23.96
2017-08-04T12:52:09.951Z,23.98
2017-08-04T12:53:09.954Z,24.08
2017-08-04T12:54:09.922Z,23.96
2017-08-04T12:55:09.978Z,23.76
2017-08-04T12:56:09.978Z,23.76